createdAt,value
2019-02-02T00:00:12.563Z,4.07
2019-02-02T00:01:09.612Z,4.08
2019-02-02T00:02:06.604Z,4.08
2019-02-02T00:03:03.619Z,4.08
2019-02-02T00:04:00.658Z,4.08
2019-02-02T00:04:57.679Z,4.08
2019-02-02T00:05:54.714Z,4.08
2019-02-02T00:06:51.745Z,4.08
2019-02-02T00:07:48.778Z,4.08
2019-02-02T00:08:45.791Z,4.08
2019-02-02T00:09:42.838Z,4.08
2019-02-02T00:10:39.861Z,4.08
2019-02-02T00:11:36.876Z,4.08
2019-02-02T00:12:33.906Z,4.08
2019-02-02T00:13:30.923Z,4.08
2019-02-02T00:14:27.961Z,4.08
2019-02-02T00:15:24.992Z,4.08
2019-02-02T00:16:22.008Z,4.08
2019-02-02T00:17:19.047Z,4.07
2019-02-02T00:18:16.074Z,4.08
2019-02-02T00:19:13.112Z,4.08
2019-02-02T00:20:10.121Z,4.07
2019-02-02T00:21:07.142Z,4.09
2019-02-02T00:22:04.183Z,4.08
2019-02-02T00:23:01.218Z,4.08
2019-02-02T00:23:58.241Z,4.08
2019-02-02T00:24:55.279Z,4.07
2019-02-02T00:25:52.315Z,4.08
2019-02-02T00:26:49.367Z,4.07
2019-02-02T00:27:46.352Z,4.08
2019-02-02T00:28:43.403Z,4.07
2019-02-02T00:29:40.399Z,4.08
2019-02-02T00:30:37.438Z,4.07
2019-02-02T00:31:34.459Z,4.08
2019-02-02T00:32:31.491Z,4.08
2019-02-02T00:33:28.516Z,4.08
2019-02-02T00:34:25.611Z,4.08
2019-02-02T00:35:22.571Z,4.08
2019-02-02T00:36:19.615Z,4.08
2019-02-02T00:37:17.617Z,4.08
2019-02-02T00:38:13.655Z,4.07
2019-02-02T00:39:10.693Z,4.08
2019-02-02T00:40:07.720Z,4.08
2019-02-02T00:41:04.726Z,4.08
2019-02-02T00:42:01.273Z,4.08
2019-02-02T00:42:58.801Z,4.08
2019-02-02T00:43:55.822Z,4.08
2019-02-02T00:44:52.882Z,4.08
2019-02-02T00:45:49.876Z,4.08
2019-02-02T00:46:46.922Z,4.08
2019-02-02T00:47:43.942Z,4.07
2019-02-02T00:48:40.963Z,4.08
2019-02-02T00:49:37.994Z,4.07
2019-02-02T00:50:35.047Z,4.07
2019-02-02T00:51:32.048Z,4.08
2019-02-02T00:52:29.070Z,4.07
2019-02-02T00:53:26.097Z,4.07
2019-02-02T00:54:23.127Z,4.07
2019-02-02T00:55:20.155Z,4.07
2019-02-02T00:56:17.179Z,4.07
2019-02-02T00:57:14.211Z,4.07
2019-02-02T00:58:10.744Z,4.08
2019-02-02T00:59:08.280Z,4.08
2019-02-02T01:00:05.293Z,4.07
2019-02-02T01:01:02.316Z,4.08
2019-02-02T01:01:59.353Z,4.08
2019-02-02T01:02:56.379Z,4.08
2019-02-02T01:03:53.392Z,4.08
2019-02-02T01:04:50.445Z,4.07
2019-02-02T01:05:47.603Z,4.07
2019-02-02T01:06:44.499Z,4.07
2019-02-02T01:07:41.518Z,4.07
2019-02-02T01:08:38.542Z,4.08
2019-02-02T01:09:35.613Z,4.08
2019-02-02T01:10:32.584Z,4.07
2019-02-02T01:11:29.625Z,4.08
2019-02-02T01:12:26.657Z,4.08
2019-02-02T01:13:23.694Z,4.08
2019-02-02T01:14:20.698Z,4.08
2019-02-02T01:15:17.735Z,4.07
2019-02-02T01:16:14.763Z,4.07
2019-02-02T01:17:12.767Z,4.07
2019-02-02T01:18:08.833Z,4.08
2019-02-02T01:19:06.795Z,4.08
2019-02-02T01:20:03.210Z,4.07
2019-02-02T01:20:59.903Z,4.08
2019-02-02T01:21:56.927Z,4.08
2019-02-02T01:22:54.031Z,4.07
2019-02-02T01:23:50.972Z,4.07
2019-02-02T01:24:48.011Z,4.07
2019-02-02T01:25:45.048Z,4.08
2019-02-02T01:26:42.068Z,4.07
2019-02-02T01:27:39.098Z,4.07
2019-02-02T01:28:36.133Z,4.08
2019-02-02T01:29:33.156Z,4.07
2019-02-02T01:30:30.179Z,4.07
2019-02-02T01:31:27.205Z,4.08
2019-02-02T01:32:24.237Z,4.07
2019-02-02T01:33:21.276Z,4.07
2019-02-02T01:34:18.291Z,4.08
2019-02-02T01:35:15.317Z,4.07
2019-02-02T01:36:12.337Z,4.08
2019-02-02T01:37:10.364Z,4.08
2019-02-02T01:38:06.404Z,4.07
2019-02-02T01:39:03.453Z,4.07
2019-02-02T01:40:00.457Z,4.07
2019-02-02T01:40:57.472Z,4.07
2019-02-02T01:41:54.506Z,4.08
2019-02-02T01:42:51.629Z,4.07
2019-02-02T01:43:48.567Z,4.07
2019-02-02T01:44:45.620Z,4.07
2019-02-02T01:45:42.623Z,4.07
2019-02-02T01:46:39.665Z,4.08
2019-02-02T01:47:36.681Z,4.07
2019-02-02T01:48:33.713Z,4.08
2019-02-02T01:49:30.729Z,4.07
2019-02-02T01:50:27.750Z,4.08
2019-02-02T01:51:24.793Z,4.07
2019-02-02T01:52:21.821Z,4.07
2019-02-02T01:53:18.846Z,4.08
2019-02-02T01:54:15.878Z,4.07
2019-02-02T01:55:12.921Z,4.07
2019-02-02T01:56:09.929Z,4.07
2019-02-02T01:57:07.952Z,4.07
2019-02-02T01:58:03.982Z,4.07
2019-02-02T01:59:01.021Z,4.07
2019-02-02T01:59:58.032Z,4.07
2019-02-02T02:00:55.059Z,4.07
2019-02-02T02:01:52.088Z,4.07
2019-02-02T02:02:49.129Z,4.07
2019-02-02T02:03:46.151Z,4.07
2019-02-02T02:04:43.179Z,4.08
2019-02-02T02:05:40.211Z,4.07
2019-02-02T02:06:37.225Z,4.07
2019-02-02T02:07:34.262Z,4.07
2019-02-02T02:08:31.292Z,4.07
2019-02-02T02:09:28.318Z,4.07
2019-02-02T02:10:25.346Z,4.07
2019-02-02T02:11:22.397Z,4.08
2019-02-02T02:12:19.391Z,4.07
2019-02-02T02:13:16.492Z,4.07
2019-02-02T02:14:13.617Z,4.07
2019-02-02T02:15:10.511Z,4.07
2019-02-02T02:16:07.596Z,4.07
2019-02-02T02:17:04.543Z,4.07
2019-02-02T02:18:01.557Z,4.07
2019-02-02T02:18:58.602Z,4.07
2019-02-02T02:19:55.622Z,4.07
2019-02-02T02:20:52.657Z,4.07
2019-02-02T02:21:49.666Z,4.07
2019-02-02T02:22:46.699Z,4.07
2019-02-02T02:23:43.736Z,4.07
2019-02-02T02:24:40.768Z,4.07
2019-02-02T02:25:37.775Z,4.07
2019-02-02T02:26:34.818Z,4.07
2019-02-02T02:27:31.853Z,4.07
2019-02-02T02:28:28.883Z,4.07
2019-02-02T02:29:25.895Z,4.07
2019-02-02T02:30:22.914Z,4.07
2019-02-02T02:31:19.948Z,4.07
2019-02-02T02:32:16.987Z,4.08
2019-02-02T02:33:14.019Z,4.07
2019-02-02T02:34:11.038Z,4.07
2019-02-02T02:35:08.066Z,4.07
2019-02-02T02:36:05.094Z,4.07
2019-02-02T02:37:03.108Z,4.08
2019-02-02T02:37:59.148Z,4.07
2019-02-02T02:38:55.682Z,4.08
2019-02-02T02:39:53.201Z,4.07
2019-02-02T02:40:50.227Z,4.08
2019-02-02T02:41:47.254Z,4.07
2019-02-02T02:42:44.284Z,4.07
2019-02-02T02:43:41.309Z,4.08
2019-02-02T02:44:38.357Z,4.07
2019-02-02T02:45:35.368Z,4.08
2019-02-02T02:46:33.393Z,4.07
2019-02-02T02:47:29.422Z,4.07
2019-02-02T02:48:26.457Z,4.08
2019-02-02T02:49:23.601Z,4.07
2019-02-02T02:50:20.505Z,4.07
2019-02-02T02:51:17.616Z,4.07
2019-02-02T02:52:14.549Z,4.07
2019-02-02T02:53:11.604Z,4.07
2019-02-02T02:54:08.632Z,4.07
2019-02-02T02:55:05.657Z,4.07
2019-02-02T02:56:02.676Z,4.07
2019-02-02T02:56:59.702Z,4.07
2019-02-02T02:57:56.733Z,4.07
2019-02-02T02:58:53.752Z,4.07
2019-02-02T02:59:50.771Z,4.07
2019-02-02T03:00:47.807Z,4.07
2019-02-02T03:01:44.824Z,4.07
2019-02-02T03:02:41.853Z,4.07
2019-02-02T03:03:38.891Z,4.07
2019-02-02T03:04:35.930Z,4.07
2019-02-02T03:05:32.944Z,4.07
2019-02-02T03:06:29.973Z,4.07
2019-02-02T03:07:27.018Z,4.07
2019-02-02T03:08:24.041Z,4.07
2019-02-02T03:09:21.049Z,4.07
2019-02-02T03:10:18.076Z,4.07
2019-02-02T03:11:15.114Z,4.07
2019-02-02T03:12:12.123Z,4.07
2019-02-02T03:13:09.154Z,4.07
2019-02-02T03:14:06.207Z,4.07
2019-02-02T03:15:03.223Z,4.07
2019-02-02T03:16:01.241Z,4.07
2019-02-02T03:16:57.276Z,4.07
2019-02-02T03:17:54.320Z,4.07
2019-02-02T03:18:51.359Z,4.07
2019-02-02T03:19:48.534Z,4.07
2019-02-02T03:20:45.392Z,4.07
2019-02-02T03:21:43.822Z,4.07
2019-02-02T03:22:38.946Z,4.07
2019-02-02T03:23:36.483Z,4.07
2019-02-02T03:24:33.610Z,4.07
2019-02-02T03:25:30.525Z,4.07
2019-02-02T03:26:27.554Z,4.07
2019-02-02T03:27:24.588Z,4.07
2019-02-02T03:28:21.626Z,4.07
2019-02-02T03:29:18.679Z,4.07
2019-02-02T03:30:15.665Z,4.07
2019-02-02T03:31:12.682Z,4.07
2019-02-02T03:32:09.710Z,4.07
2019-02-02T03:33:06.756Z,4.07
2019-02-02T03:34:03.773Z,4.07
2019-02-02T03:35:00.811Z,4.07
2019-02-02T03:35:57.828Z,4.07
2019-02-02T03:36:54.863Z,4.07
2019-02-02T03:37:51.878Z,4.07
2019-02-02T03:38:48.915Z,4.07
2019-02-02T03:39:45.601Z,4.07
2019-02-02T03:40:42.966Z,4.07
2019-02-02T03:41:39.985Z,4.07
2019-02-02T03:42:37.015Z,4.07
2019-02-02T03:43:34.060Z,4.07
2019-02-02T03:44:31.077Z,4.07
2019-02-02T03:45:28.096Z,4.07
2019-02-02T03:46:25.133Z,4.07
2019-02-02T03:47:22.168Z,4.07
2019-02-02T03:48:19.179Z,4.07
2019-02-02T03:49:16.203Z,4.07
2019-02-02T03:50:13.245Z,4.07
2019-02-02T03:51:10.280Z,4.07
2019-02-02T03:52:07.299Z,4.07
2019-02-02T03:53:04.340Z,4.07
2019-02-02T03:54:09.009Z,4.07
2019-02-02T03:54:58.393Z,4.07
2019-02-02T03:55:56.410Z,4.07
2019-02-02T03:56:52.450Z,4.07
2019-02-02T03:57:49.598Z,4.07
2019-02-02T03:58:46.483Z,4.07
2019-02-02T03:59:43.600Z,4.07
2019-02-02T04:00:40.536Z,4.07
2019-02-02T04:01:37.596Z,4.07
2019-02-02T04:02:34.595Z,4.07
2019-02-02T04:03:31.647Z,4.07
2019-02-02T04:04:28.662Z,4.07
2019-02-02T04:05:25.708Z,4.07
2019-02-02T04:06:22.717Z,4.07
2019-02-02T04:07:19.773Z,4.07
2019-02-02T04:08:16.772Z,4.07
2019-02-02T04:09:13.810Z,4.07
2019-02-02T04:10:10.822Z,4.07
2019-02-02T04:11:07.858Z,4.07
2019-02-02T04:12:04.871Z,4.07
2019-02-02T04:13:01.909Z,4.07
2019-02-02T04:13:58.939Z,4.07
2019-02-02T04:14:55.974Z,4.07
2019-02-02T04:15:53.045Z,4.07
2019-02-02T04:16:50.040Z,4.07
2019-02-02T04:17:47.042Z,4.07
2019-02-02T04:18:44.080Z,4.07
2019-02-02T04:19:41.108Z,4.07
2019-02-02T04:20:38.128Z,4.07
2019-02-02T04:21:35.168Z,4.07
2019-02-02T04:22:32.180Z,4.07
2019-02-02T04:23:29.226Z,4.07
2019-02-02T04:24:26.248Z,4.07
2019-02-02T04:25:23.266Z,4.07
2019-02-02T04:26:20.300Z,4.07
2019-02-02T04:27:17.336Z,4.07
2019-02-02T04:28:14.347Z,4.07
2019-02-02T04:29:17.737Z,4.07
2019-02-02T04:30:08.411Z,4.07
2019-02-02T04:31:05.429Z,4.07
2019-02-02T04:32:02.469Z,4.07
2019-02-02T04:32:59.591Z,4.07
2019-02-02T04:33:56.523Z,4.07
2019-02-02T04:34:53.547Z,4.07
2019-02-02T04:35:50.582Z,4.07
2019-02-02T04:36:47.611Z,4.07
2019-02-02T04:37:44.643Z,4.07
2019-02-02T04:38:41.665Z,4.07
2019-02-02T04:39:38.689Z,4.07
2019-02-02T04:40:35.719Z,4.07
2019-02-02T04:41:32.734Z,4.07
2019-02-02T04:42:29.773Z,4.07
2019-02-02T04:43:26.810Z,4.07
2019-02-02T04:44:23.827Z,4.07
2019-02-02T04:45:20.871Z,4.07
2019-02-02T04:46:17.878Z,4.07
2019-02-02T04:47:14.926Z,4.07
2019-02-02T04:48:12.980Z,4.07
2019-02-02T04:49:08.966Z,4.07
2019-02-02T04:50:05.984Z,4.07
2019-02-02T04:51:03.022Z,4.07
2019-02-02T04:52:00.051Z,4.07
2019-02-02T04:52:57.078Z,4.07
2019-02-02T04:53:54.107Z,4.07
2019-02-02T04:54:51.132Z,4.07
2019-02-02T04:55:48.184Z,4.07
2019-02-02T04:56:45.189Z,4.07
2019-02-02T04:57:42.208Z,4.07
2019-02-02T04:58:39.245Z,4.07
2019-02-02T04:59:36.273Z,4.07
2019-02-02T05:00:33.305Z,4.07
2019-02-02T05:01:30.320Z,4.07
2019-02-02T05:02:30.267Z,4.07
2019-02-02T05:03:24.390Z,4.07
2019-02-02T05:04:21.410Z,4.07
2019-02-02T05:05:18.447Z,4.07
2019-02-02T05:06:15.617Z,4.07
2019-02-02T05:07:12.502Z,4.07
2019-02-02T05:08:09.595Z,4.07
2019-02-02T05:09:06.531Z,4.07
2019-02-02T05:10:03.571Z,4.07
2019-02-02T05:11:00.608Z,4.07
2019-02-02T05:11:57.620Z,4.07
2019-02-02T05:12:54.649Z,4.07
2019-02-02T05:13:51.707Z,4.07
2019-02-02T05:14:48.715Z,4.07
2019-02-02T05:15:45.743Z,4.07
2019-02-02T05:16:42.778Z,4.07
2019-02-02T05:17:39.812Z,4.06
2019-02-02T05:18:36.849Z,4.06
2019-02-02T05:19:33.841Z,4.07
2019-02-02T05:20:30.880Z,4.07
2019-02-02T05:21:27.911Z,4.07
2019-02-02T05:22:24.927Z,4.07
2019-02-02T05:23:21.988Z,4.07
2019-02-02T05:24:18.994Z,4.07
2019-02-02T05:25:16.023Z,4.07
2019-02-02T05:26:13.056Z,4.07
2019-02-02T05:27:10.081Z,4.06
2019-02-02T05:28:06.611Z,4.07
2019-02-02T05:29:04.118Z,4.07
2019-02-02T05:30:01.152Z,4.07
2019-02-02T05:30:58.189Z,4.07
2019-02-02T05:31:55.214Z,4.07
2019-02-02T05:32:52.255Z,4.07
2019-02-02T05:33:49.272Z,4.07
2019-02-02T05:34:46.298Z,4.07
2019-02-02T05:35:43.325Z,4.07
2019-02-02T05:36:39.860Z,4.07
2019-02-02T05:37:37.374Z,4.07
2019-02-02T05:38:34.502Z,4.07
2019-02-02T05:39:31.440Z,4.07
2019-02-02T05:40:28.461Z,4.06
2019-02-02T05:41:25.632Z,4.07
2019-02-02T05:42:22.520Z,4.07
2019-02-02T05:43:19.619Z,4.07
2019-02-02T05:44:16.574Z,4.07
2019-02-02T05:45:13.601Z,4.07
2019-02-02T05:46:10.641Z,4.07
2019-02-02T05:47:07.673Z,4.06
2019-02-02T05:48:04.676Z,4.07
2019-02-02T05:49:01.715Z,4.07
2019-02-02T05:49:58.738Z,4.07
2019-02-02T05:50:55.755Z,4.06
2019-02-02T05:51:52.811Z,4.07
2019-02-02T05:52:49.825Z,4.06
2019-02-02T05:53:46.852Z,4.07
2019-02-02T05:54:43.878Z,4.07
2019-02-02T05:55:40.904Z,4.07
2019-02-02T05:56:37.936Z,4.07
2019-02-02T05:57:34.959Z,4.07
2019-02-02T05:58:31.976Z,4.07
2019-02-02T05:59:29.013Z,4.07
2019-02-02T06:00:26.052Z,4.07
2019-02-02T06:01:23.072Z,4.06
2019-02-02T06:02:20.100Z,4.06
2019-02-02T06:03:17.134Z,4.07
2019-02-02T06:04:14.159Z,4.07
2019-02-02T06:05:11.181Z,4.07
2019-02-02T06:06:08.211Z,4.06
2019-02-02T06:07:05.237Z,4.06
2019-02-02T06:08:02.258Z,4.06
2019-02-02T06:08:59.285Z,4.07
2019-02-02T06:09:56.322Z,4.06
2019-02-02T06:10:53.355Z,4.07
2019-02-02T06:11:50.381Z,4.07
2019-02-02T06:12:47.431Z,4.07
2019-02-02T06:13:44.434Z,4.06
2019-02-02T06:14:41.916Z,4.07
2019-02-02T06:15:39.494Z,4.07
2019-02-02T06:16:35.589Z,4.06
2019-02-02T06:17:32.548Z,4.06
2019-02-02T06:18:29.595Z,4.06
2019-02-02T06:19:26.596Z,4.06
2019-02-02T06:20:23.633Z,4.06
2019-02-02T06:21:20.643Z,4.07
2019-02-02T06:22:17.672Z,4.07
2019-02-02T06:23:14.708Z,4.07
2019-02-02T06:24:11.739Z,4.07
2019-02-02T06:25:09.761Z,4.07
2019-02-02T06:26:05.800Z,4.07
2019-02-02T06:27:02.850Z,4.06
2019-02-02T06:27:59.853Z,4.07
2019-02-02T06:28:56.867Z,4.07
2019-02-02T06:30:03.744Z,4.07
2019-02-02T06:30:50.928Z,4.07
2019-02-02T06:31:47.945Z,4.06
2019-02-02T06:32:44.500Z,4.07
2019-02-02T06:33:42.013Z,4.07
2019-02-02T06:34:39.029Z,4.07
2019-02-02T06:35:36.068Z,4.06
2019-02-02T06:36:33.102Z,4.06
2019-02-02T06:37:30.127Z,4.07
2019-02-02T06:38:27.148Z,4.07
2019-02-02T06:39:24.172Z,4.06
2019-02-02T06:40:21.210Z,4.06
2019-02-02T06:41:18.220Z,4.07
2019-02-02T06:42:15.274Z,4.07
2019-02-02T06:43:12.287Z,4.06
2019-02-02T06:44:09.312Z,4.07
2019-02-02T06:45:06.340Z,4.07
2019-02-02T06:46:03.377Z,4.07
2019-02-02T06:47:00.401Z,4.07
2019-02-02T06:47:57.433Z,4.07
2019-02-02T06:48:54.442Z,4.07
2019-02-02T06:49:51.611Z,4.07
2019-02-02T06:50:48.519Z,4.07
2019-02-02T06:51:45.534Z,4.07
2019-02-02T06:52:42.570Z,4.06
2019-02-02T06:53:39.599Z,4.07
2019-02-02T06:54:36.618Z,4.06
2019-02-02T06:55:33.649Z,4.06
2019-02-02T06:56:30.669Z,4.07
2019-02-02T06:57:27.214Z,4.06
2019-02-02T06:58:24.730Z,4.07
2019-02-02T06:59:21.758Z,4.06
2019-02-02T07:00:18.777Z,4.07
2019-02-02T07:01:15.812Z,4.07
2019-02-02T07:02:12.859Z,4.07
2019-02-02T07:03:09.887Z,4.07
2019-02-02T07:04:06.887Z,4.06
2019-02-02T07:05:03.924Z,4.06
2019-02-02T07:06:00.961Z,4.07
2019-02-02T07:06:57.997Z,4.07
2019-02-02T07:07:54.995Z,4.07
2019-02-02T07:08:52.037Z,4.06
2019-02-02T07:09:49.064Z,4.06
2019-02-02T07:10:46.088Z,4.07
2019-02-02T07:11:43.115Z,4.06
2019-02-02T07:12:40.154Z,4.07
2019-02-02T07:13:37.167Z,4.07
2019-02-02T07:14:35.199Z,4.06
2019-02-02T07:15:31.346Z,4.07
2019-02-02T07:16:28.243Z,4.07
2019-02-02T07:17:25.286Z,4.06
2019-02-02T07:18:22.318Z,4.07
2019-02-02T07:19:19.339Z,4.06
2019-02-02T07:20:16.365Z,4.07
2019-02-02T07:21:13.382Z,4.07
2019-02-02T07:22:10.439Z,4.07
2019-02-02T07:23:07.631Z,4.07
2019-02-02T07:24:04.594Z,4.07
2019-02-02T07:25:01.635Z,4.07
2019-02-02T07:25:58.683Z,4.07
2019-02-02T07:26:55.626Z,4.07
2019-02-02T07:27:52.589Z,4.07
2019-02-02T07:28:49.620Z,4.07
2019-02-02T07:29:46.632Z,4.07
2019-02-02T07:30:43.671Z,4.07
2019-02-02T07:31:40.696Z,4.06
2019-02-02T07:32:37.734Z,4.07
2019-02-02T07:33:34.769Z,4.07
2019-02-02T07:34:31.779Z,4.06
2019-02-02T07:35:28.809Z,4.07
2019-02-02T07:36:25.833Z,4.06
2019-02-02T07:37:22.870Z,4.07
2019-02-02T07:38:20.036Z,4.07
2019-02-02T07:39:16.917Z,4.07
2019-02-02T07:40:13.935Z,4.07
2019-02-02T07:41:10.976Z,4.06
2019-02-02T07:42:08.048Z,4.07
2019-02-02T07:43:05.098Z,4.07
2019-02-02T07:44:02.066Z,4.07
2019-02-02T07:44:59.087Z,4.07
2019-02-02T07:45:56.121Z,4.07
2019-02-02T07:46:53.134Z,4.07
2019-02-02T07:47:50.188Z,4.07
2019-02-02T07:48:47.192Z,4.07
2019-02-02T07:49:44.227Z,4.07
2019-02-02T07:50:41.308Z,4.07
2019-02-02T07:51:38.287Z,4.07
2019-02-02T07:52:35.317Z,4.07
2019-02-02T07:53:32.346Z,4.07
2019-02-02T07:54:29.360Z,4.07
2019-02-02T07:55:26.512Z,4.07
2019-02-02T07:56:23.403Z,4.07
2019-02-02T07:57:20.699Z,4.07
2019-02-02T07:58:17.616Z,4.07
2019-02-02T07:59:14.502Z,4.07
2019-02-02T08:00:12.523Z,4.07
2019-02-02T08:01:08.550Z,4.07
2019-02-02T08:02:05.593Z,4.07
2019-02-02T08:03:02.613Z,4.06
2019-02-02T08:03:59.149Z,4.07
2019-02-02T08:04:56.677Z,4.07
2019-02-02T08:05:53.688Z,4.07
2019-02-02T08:06:50.728Z,4.07
2019-02-02T08:07:47.736Z,4.07
2019-02-02T08:08:44.776Z,4.07
2019-02-02T08:09:41.793Z,4.07
2019-02-02T08:10:38.825Z,4.07
2019-02-02T08:11:35.857Z,4.07
2019-02-02T08:12:32.889Z,4.07
2019-02-02T08:13:29.423Z,4.07
2019-02-02T08:14:26.950Z,4.07
2019-02-02T08:15:23.976Z,4.07
2019-02-02T08:16:20.987Z,4.07
2019-02-02T08:17:18.031Z,4.07
2019-02-02T08:18:15.044Z,4.07
2019-02-02T08:19:12.074Z,4.07
2019-02-02T08:20:09.097Z,4.07
2019-02-02T08:21:06.135Z,4.07
2019-02-02T08:22:03.162Z,4.09
2019-02-02T08:23:00.189Z,4.09
2019-02-02T08:23:57.225Z,4.07
2019-02-02T08:24:54.242Z,4.07
2019-02-02T08:25:51.274Z,4.07
2019-02-02T08:26:48.293Z,4.07
2019-02-02T08:27:45.327Z,4.07
2019-02-02T08:28:42.459Z,4.07
2019-02-02T08:29:39.377Z,4.06
2019-02-02T08:30:36.450Z,4.06
2019-02-02T08:31:33.595Z,4.06
2019-02-02T08:32:30.464Z,4.07
2019-02-02T08:33:28.484Z,4.07
2019-02-02T08:34:24.527Z,4.07
2019-02-02T08:35:21.599Z,4.08
2019-02-02T08:36:18.565Z,4.07
2019-02-02T08:37:15.642Z,4.07
2019-02-02T08:38:12.629Z,4.07
2019-02-02T08:39:09.903Z,4.07
2019-02-02T08:40:06.675Z,4.08
2019-02-02T08:41:03.715Z,4.07
2019-02-02T08:42:00.740Z,4.07
2019-02-02T08:42:58.763Z,4.07
2019-02-02T08:43:54.804Z,4.07
2019-02-02T08:44:51.824Z,4.07
2019-02-02T08:45:48.836Z,4.09
2019-02-02T08:46:45.870Z,4.07
2019-02-02T08:47:42.905Z,4.07
2019-02-02T08:48:39.925Z,4.08
2019-02-02T08:49:36.957Z,4.07
2019-02-02T08:50:34.005Z,4.07
2019-02-02T08:51:31.004Z,4.08
2019-02-02T08:52:28.030Z,4.07
2019-02-02T08:53:26.074Z,4.07
2019-02-02T08:54:21.599Z,4.07
2019-02-02T08:55:19.120Z,4.07
2019-02-02T08:56:16.153Z,4.07
2019-02-02T08:57:13.175Z,4.07
2019-02-02T08:58:10.372Z,4.07
2019-02-02T08:59:07.225Z,4.08
2019-02-02T09:00:04.258Z,4.07
2019-02-02T09:01:04.096Z,4.07
2019-02-02T09:01:58.315Z,4.07
2019-02-02T09:02:55.351Z,4.07
2019-02-02T09:03:52.422Z,4.07
2019-02-02T09:04:49.471Z,4.07
2019-02-02T09:05:46.447Z,4.07
2019-02-02T09:06:43.605Z,4.07
2019-02-02T09:07:40.485Z,4.07
2019-02-02T09:08:37.598Z,4.07
2019-02-02T09:09:34.529Z,4.07
2019-02-02T09:10:31.626Z,4.07
2019-02-02T09:11:28.593Z,4.07
2019-02-02T09:12:25.620Z,4.08
2019-02-02T09:13:22.679Z,4.07
2019-02-02T09:14:19.669Z,4.07
2019-02-02T09:15:16.698Z,4.07
2019-02-02T09:16:14.193Z,4.07
2019-02-02T09:17:10.756Z,4.07
2019-02-02T09:18:07.775Z,4.07
2019-02-02T09:19:04.844Z,4.07
2019-02-02T09:20:01.857Z,4.07
2019-02-02T09:20:58.870Z,4.08
2019-02-02T09:21:55.898Z,4.08
2019-02-02T09:23:03.906Z,4.09
2019-02-02T09:23:49.987Z,4.08
2019-02-02T09:24:46.979Z,4.08
2019-02-02T09:25:44.006Z,4.07
2019-02-02T09:26:41.028Z,4.07
2019-02-02T09:27:38.054Z,4.07
2019-02-02T09:28:35.092Z,4.08
2019-02-02T09:29:32.143Z,4.07
2019-02-02T09:30:29.160Z,4.07
2019-02-02T09:31:26.179Z,4.08
2019-02-02T09:32:23.216Z,4.09
2019-02-02T09:33:20.241Z,4.07
2019-02-02T09:34:17.266Z,4.07
2019-02-02T09:35:14.293Z,4.07
2019-02-02T09:36:11.304Z,4.09
2019-02-02T09:37:08.339Z,4.08
2019-02-02T09:38:05.381Z,4.08
2019-02-02T09:39:02.386Z,4.09
2019-02-02T09:39:59.435Z,4.08
2019-02-02T09:40:56.457Z,4.09
2019-02-02T09:41:53.599Z,4.08
2019-02-02T09:42:50.503Z,4.07
2019-02-02T09:43:47.544Z,4.07
2019-02-02T09:44:44.579Z,4.09
2019-02-02T09:45:41.599Z,4.08
2019-02-02T09:46:38.611Z,4.08
2019-02-02T09:47:35.648Z,4.10
2019-02-02T09:48:32.669Z,4.08
2019-02-02T09:49:29.733Z,4.09
2019-02-02T09:50:26.734Z,4.08
2019-02-02T09:51:23.741Z,4.08
2019-02-02T09:52:20.785Z,4.08
2019-02-02T09:53:17.803Z,4.09
2019-02-02T09:54:26.069Z,4.08
2019-02-02T09:55:11.862Z,4.09
2019-02-02T09:56:08.893Z,4.09
2019-02-02T09:57:05.921Z,4.09
2019-02-02T09:58:02.933Z,4.09
2019-02-02T09:58:59.970Z,4.09
2019-02-02T09:59:57.006Z,4.09
2019-02-02T10:00:54.034Z,4.08
2019-02-02T10:01:51.068Z,4.08
2019-02-02T10:02:48.090Z,4.08
2019-02-02T10:03:45.099Z,4.08
2019-02-02T10:04:42.135Z,4.09
2019-02-02T10:05:39.223Z,4.08
2019-02-02T10:06:36.202Z,4.09
2019-02-02T10:07:33.218Z,4.09
2019-02-02T10:08:30.237Z,4.09
2019-02-02T10:09:27.296Z,4.08
2019-02-02T10:10:24.305Z,4.08
2019-02-02T10:11:21.369Z,4.07
2019-02-02T10:12:20.993Z,4.08
2019-02-02T10:13:15.396Z,4.08
2019-02-02T10:14:12.422Z,4.08
2019-02-02T10:15:08.957Z,4.09
2019-02-02T10:16:06.503Z,4.09
2019-02-02T10:17:03.606Z,4.07
2019-02-02T10:18:00.515Z,4.09
2019-02-02T10:18:57.596Z,4.09
2019-02-02T10:19:54.580Z,4.07
2019-02-02T10:21:03.362Z,4.10
2019-02-02T10:21:49.916Z,4.09
2019-02-02T10:22:45.692Z,4.10
2019-02-02T10:23:42.689Z,4.10
2019-02-02T10:24:39.744Z,4.08
2019-02-02T10:25:36.738Z,4.09
2019-02-02T10:26:33.788Z,4.09
2019-02-02T10:27:30.804Z,4.09
2019-02-02T10:28:27.835Z,4.08
2019-02-02T10:29:24.853Z,4.09
2019-02-02T10:30:22.851Z,4.11
2019-02-02T10:31:18.921Z,4.09
2019-02-02T10:32:15.973Z,4.09
2019-02-02T10:33:12.969Z,4.08
2019-02-02T10:34:12.331Z,4.10
2019-02-02T10:36:04.051Z,4.09
2019-02-02T10:37:01.076Z,4.09
2019-02-02T10:37:58.114Z,4.09
2019-02-02T10:38:55.126Z,4.07
2019-02-02T10:39:52.154Z,4.09
2019-02-02T10:40:49.189Z,4.11
2019-02-02T10:41:46.227Z,4.10
2019-02-02T10:42:43.244Z,4.09
2019-02-02T10:43:40.257Z,4.09
2019-02-02T10:44:37.293Z,4.11
2019-02-02T10:45:34.451Z,4.10
2019-02-02T10:46:31.448Z,4.09
2019-02-02T10:47:28.376Z,4.09
2019-02-02T10:48:25.402Z,4.09
2019-02-02T10:49:22.429Z,4.10
2019-02-02T10:50:19.457Z,4.10
2019-02-02T10:51:16.533Z,4.10
2019-02-02T10:52:13.628Z,4.10
2019-02-02T10:53:10.545Z,4.09
2019-02-02T10:54:07.602Z,4.10
2019-02-02T10:55:04.599Z,4.10
2019-02-02T10:56:01.642Z,4.10
2019-02-02T10:56:58.668Z,4.11
2019-02-02T10:57:55.676Z,4.10
2019-02-02T10:58:52.704Z,4.11
2019-02-02T10:59:49.733Z,4.11
2019-02-02T11:00:46.759Z,4.10
2019-02-02T11:01:50.842Z,4.10
2019-02-02T11:02:40.814Z,4.10
2019-02-02T11:03:37.844Z,4.10
2019-02-02T11:04:34.939Z,4.11
2019-02-02T11:05:31.901Z,4.11
2019-02-02T11:06:28.947Z,4.11
2019-02-02T11:07:26.026Z,4.12
2019-02-02T11:08:23.117Z,4.11
2019-02-02T11:09:21.063Z,4.09
2019-02-02T11:10:18.294Z,4.10
2019-02-02T11:11:14.190Z,4.10
2019-02-02T11:12:11.091Z,4.10
2019-02-02T11:13:08.230Z,4.11
2019-02-02T11:14:05.165Z,4.10
2019-02-02T11:15:02.166Z,4.11
2019-02-02T11:15:59.217Z,4.11
2019-02-02T11:16:56.232Z,4.10
2019-02-02T11:17:53.279Z,4.09
2019-02-02T11:18:51.337Z,4.10
2019-02-02T11:19:47.522Z,4.11
2019-02-02T11:20:44.339Z,4.11
2019-02-02T11:21:41.558Z,4.11
2019-02-02T11:22:38.461Z,4.11
2019-02-02T11:23:35.429Z,4.11
2019-02-02T11:24:32.535Z,4.11
2019-02-02T11:25:29.629Z,4.11
2019-02-02T11:26:26.598Z,4.11
2019-02-02T11:27:23.775Z,4.11
2019-02-02T11:28:21.658Z,4.11
2019-02-02T11:29:17.596Z,4.11
2019-02-02T11:30:14.609Z,4.11
2019-02-02T11:31:11.625Z,4.12
2019-02-02T11:32:08.668Z,4.11
2019-02-02T11:33:05.683Z,4.11
2019-02-02T11:34:02.719Z,4.11
2019-02-02T11:34:59.739Z,4.11
2019-02-02T11:35:56.778Z,4.12
2019-02-02T11:36:53.798Z,4.11
2019-02-02T11:37:51.825Z,4.11
2019-02-02T11:38:47.844Z,4.12
2019-02-02T11:39:44.869Z,4.10
2019-02-02T11:40:41.935Z,4.11
2019-02-02T11:41:38.935Z,4.11
2019-02-02T11:42:35.959Z,4.11
2019-02-02T11:43:32.984Z,4.11
2019-02-02T11:44:30.010Z,4.11
2019-02-02T11:45:27.047Z,4.11
2019-02-02T11:46:24.069Z,4.11
2019-02-02T11:47:21.096Z,4.11
2019-02-02T11:48:18.120Z,4.11
2019-02-02T11:49:15.138Z,4.09
2019-02-02T11:50:12.177Z,4.11
2019-02-02T11:51:09.202Z,4.13
2019-02-02T11:52:06.226Z,4.13
2019-02-02T11:53:04.258Z,4.11
2019-02-02T11:54:00.275Z,4.13
2019-02-02T11:54:56.807Z,4.12
2019-02-02T11:55:54.339Z,4.11
2019-02-02T11:56:51.363Z,4.11
2019-02-02T11:57:49.950Z,4.12
2019-02-02T11:58:45.407Z,4.12
2019-02-02T11:59:42.446Z,4.12
2019-02-02T12:00:39.460Z,4.11
2019-02-02T12:01:36.497Z,4.12
2019-02-02T12:02:33.517Z,4.11
2019-02-02T12:03:30.542Z,4.11
2019-02-02T12:04:27.597Z,4.11
2019-02-02T12:05:24.607Z,4.12
2019-02-02T12:06:21.632Z,4.13
2019-02-02T12:07:18.663Z,4.12
2019-02-02T12:08:15.707Z,4.12
2019-02-02T12:09:12.712Z,4.11
2019-02-02T12:10:09.737Z,4.11
2019-02-02T12:11:06.771Z,4.12
2019-02-02T12:12:03.796Z,4.11
2019-02-02T12:13:00.845Z,4.11
2019-02-02T12:13:58.617Z,4.12
2019-02-02T12:14:56.805Z,4.12
2019-02-02T12:15:51.903Z,4.12
2019-02-02T12:16:48.951Z,4.12
2019-02-02T12:17:46.002Z,4.12
2019-02-02T12:18:42.986Z,4.12
2019-02-02T12:19:40.010Z,4.12
2019-02-02T12:20:37.068Z,4.11
2019-02-02T12:21:34.082Z,4.12
2019-02-02T12:22:31.136Z,4.11
2019-02-02T12:23:28.129Z,4.11
2019-02-02T12:24:25.151Z,4.09
2019-02-02T12:25:22.189Z,4.13
2019-02-02T12:26:19.212Z,4.11
2019-02-02T12:27:16.217Z,4.13
2019-02-02T12:28:13.253Z,4.11
2019-02-02T12:29:10.280Z,4.12
2019-02-02T12:30:07.308Z,4.11
2019-02-02T12:31:04.354Z,4.13
2019-02-02T12:32:01.383Z,4.12
2019-02-02T12:32:58.408Z,4.11
2019-02-02T12:33:56.405Z,4.12
2019-02-02T12:34:52.461Z,4.12
2019-02-02T12:35:49.625Z,4.12
2019-02-02T12:36:46.483Z,4.12
2019-02-02T12:37:43.600Z,4.12
2019-02-02T12:38:40.563Z,4.13
2019-02-02T12:39:37.644Z,4.12